Time;durP1;ratioP1;P1;durP2;ratioP2;P2;SDS_P1;SDS_P2;PMS_P1;PMS_P2;Temp;Humidity;BMP_temperature;BMP_pressure;BME280_temperature;BME280_humidity;BME280_pressure;Samples;Min_cycle;Max_cycle;Signal;HPM_P1;HPM_P2
2021/05/28 00:09:13;;;;;;;12.1;8.4;;;;;;;12.06;94.88574;98672.38;;;;
2021/05/28 00:19:12;;;;;;;17.4;10.2;;;;;;;11.98;95.4541;98665.04;;;;
2021/05/28 00:29:11;;;;;;;12.6;8;;;;;;;11.89;97.19141;98656.94;;;;
2021/05/28 00:39:10;;;;;;;10.1;7.8;;;;;;;11.9;95.54004;98669.33;;;;
2021/05/28 00:49:09;;;;;;;10.5;6.6;;;;;;;11.77;95.66797;98659.42;;;;
2021/05/28 00:59:07;;;;;;;11.5;7.4;;;;;;;11.82;95.08301;98680.89;;;;
2021/05/28 01:09:06;;;;;;;10.5;7.7;;;;;;;11.82;94.27246;98680.89;;;;
2021/05/28 01:19:05;;;;;;;10.8;7.7;;;;;;;11.77;94.27246;98683.73;;;;
2021/05/28 01:29:04;;;;;;;10.2;8.3;;;;;;;11.74;93.36621;98681.66;;;;
2021/05/28 01:39:03;;;;;;;11.1;7.3;;;;;;;11.66;93.21387;98701.3;;;;
2021/05/28 01:49:03;;;;;;;10.6;6.8;;;;;;;11.55;94.59766;98708.08;;;;
2021/05/28 01:59:00;;;;;;;9.9;7.5;;;;;;;11.47;93.48926;98701.53;;;;
2021/05/28 02:08:59;;;;;;;11.4;8.5;;;;;;;11.37;93.82617;98719.88;;;;
2021/05/28 02:18:58;;;;;;;9.3;6.9;;;;;;;11.27;94.40137;98720.94;;;;
2021/05/28 02:28:56;;;;;;;10.8;7.5;;;;;;;11;95.93848;98729.95;;;;
2021/05/28 02:38:55;;;;;;;10.8;7.3;;;;;;;10.91;96.15527;98729.09;;;;
2021/05/28 02:48:54;;;;;;;13.4;6.6;;;;;;;10.74;98.2041;98744.33;;;;
2021/05/28 02:58:52;;;;;;;11.5;7.6;;;;;;;10.46;99.92188;98746.3;;;;
2021/05/28 03:08:51;;;;;;;11.1;7.2;;;;;;;10.47;100;98735.23;;;;
2021/05/28 03:18:52;;;;;;;13.6;9;;;;;;;10.44;100;98754.7;;;;
2021/05/28 03:28:48;;;;;;;16.4;9.1;;;;;;;10.43;100;98765.77;;;;
2021/05/28 03:38:47;;;;;;;13.4;8.4;;;;;;;10.45;100;98766.25;;;;
2021/05/28 03:48:45;;;;;;;11.8;8.8;;;;;;;10.65;100;98778.52;;;;
2021/05/28 03:58:44;;;;;;;11.4;8.6;;;;;;;10.72;100;98782.39;;;;
2021/05/28 04:08:42;;;;;;;18.1;9.4;;;;;;;10.81;100;98780.56;;;;
2021/05/28 04:18:41;;;;;;;11.4;9.6;;;;;;;10.95;100;98789.41;;;;
2021/05/28 04:28:40;;;;;;;16.2;10;;;;;;;11.25;98.97852;98797.88;;;;
2021/05/28 04:38:39;;;;;;;13.6;9;;;;;;;11.36;96.25293;98799.23;;;;
2021/05/28 04:48:37;;;;;;;14.4;10.2;;;;;;;11.47;95.33398;98795.98;;;;
2021/05/28 04:58:36;;;;;;;10.1;7.1;;;;;;;12.02;91.02539;98801.07;;;;
2021/05/28 05:08:36;;;;;;;9.3;6.9;;;;;;;11.95;88.14648;98798.02;;;;
2021/05/28 05:18:34;;;;;;;10.2;4.8;;;;;;;12.04;87.51172;98813.15;;;;
2021/05/28 05:28:32;;;;;;;7.9;4.1;;;;;;;12.09;84.2793;98817.63;;;;
2021/05/28 05:38:31;;;;;;;17.3;7.2;;;;;;;12.4;83.97559;98828.39;;;;
2021/05/28 05:48:30;;;;;;;10.1;5.8;;;;;;;12.54;83.45117;98829.88;;;;
2021/05/28 05:58:29;;;;;;;8.1;5.4;;;;;;;12.84;85.30664;98849.05;;;;
2021/05/28 06:08:28;;;;;;;8.8;5.3;;;;;;;13.09;81.07422;98846.39;;;;
2021/05/28 06:18:27;;;;;;;10.3;6.6;;;;;;;13.15;78.87207;98848.95;;;;
2021/05/28 06:28:26;;;;;;;8.2;5.6;;;;;;;13.3;80.32813;98859.29;;;;
2021/05/28 06:38:25;;;;;;;8.9;5.5;;;;;;;13.56;78.58398;98852.77;;;;
2021/05/28 06:48:24;;;;;;;6.1;4.5;;;;;;;13.9;75.02832;98846.49;;;;
2021/05/28 06:58:23;;;;;;;6.5;4.6;;;;;;;14.07;73.21289;98849.16;;;;
2021/05/28 07:08:22;;;;;;;9.3;5.1;;;;;;;14.57;74.4707;98843.09;;;;
2021/05/28 07:18:21;;;;;;;5.6;3.6;;;;;;;14.8;69.39746;98849.81;;;;
2021/05/28 07:28:20;;;;;;;9.5;6;;;;;;;15.22;68.31934;98857.99;;;;
2021/05/28 07:38:19;;;;;;;5.9;4.2;;;;;;;15.28;66.22461;98853.95;;;;
2021/05/28 07:48:19;;;;;;;5.9;3.7;;;;;;;15.63;65.62402;98858;;;;
2021/05/28 07:58:18;;;;;;;5.6;3.4;;;;;;;15.6;63.74023;98850.52;;;;
2021/05/28 08:08:17;;;;;;;7.1;4.4;;;;;;;16.45;63.64551;98845.28;;;;
2021/05/28 08:18:17;;;;;;;5.4;3.5;;;;;;;16.63;63.12988;98840.41;;;;
2021/05/28 08:28:16;;;;;;;8.6;4.2;;;;;;;17.08;60.33203;98847.28;;;;
2021/05/28 08:38:16;;;;;;;4.8;3;;;;;;;16.9;58.45508;98848.67;;;;
2021/05/28 08:48:16;;;;;;;7.8;4.3;;;;;;;16.84;58.33008;98857.41;;;;
2021/05/28 08:58:15;;;;;;;8.6;4.1;;;;;;;17.18;57.9375;98845.24;;;;
2021/05/28 09:08:15;;;;;;;6;3.7;;;;;;;17.2;58.9541;98843.75;;;;
2021/05/28 09:18:14;;;;;;;6.3;3;;;;;;;16.62;56.63379;98841.56;;;;
2021/05/28 09:28:14;;;;;;;6.9;4.3;;;;;;;16.87;59.45117;98838.47;;;;
2021/05/28 09:38:13;;;;;;;8.5;3.9;;;;;;;16.49;58.69922;98836.08;;;;
2021/05/28 09:48:13;;;;;;;6.5;4.5;;;;;;;16.37;61.22266;98838.81;;;;
2021/05/28 09:58:12;;;;;;;5.4;3.3;;;;;;;16.8;60.75293;98842.92;;;;
2021/05/28 10:08:12;;;;;;;9;5.5;;;;;;;17.7;59.53809;98839.75;;;;
2021/05/28 10:18:11;;;;;;;5.5;3.6;;;;;;;17.14;59.00391;98834.24;;;;
2021/05/28 10:28:11;;;;;;;3.8;1.9;;;;;;;17.54;56.39355;98826.83;;;;
2021/05/28 10:38:10;;;;;;;5.7;2.3;;;;;;;17.87;53.92969;98812.17;;;;
2021/05/28 10:48:10;;;;;;;5.7;2.8;;;;;;;18.46;53.67676;98798.45;;;;
2021/05/28 10:58:10;;;;;;;6.4;2.2;;;;;;;19.16;53.9248;98812.16;;;;
2021/05/28 11:08:09;;;;;;;6.3;3.4;;;;;;;18.73;52.37891;98800.29;;;;
2021/05/28 11:18:09;;;;;;;5.7;3;;;;;;;19.36;49.5293;98805.55;;;;
2021/05/28 11:28:09;;;;;;;4.3;1.9;;;;;;;18.79;50.67188;98806.25;;;;
2021/05/28 11:38:09;;;;;;;5.1;2.9;;;;;;;18.69;53.91309;98804.08;;;;
2021/05/28 11:48:09;;;;;;;4.2;1.9;;;;;;;18.52;50.16504;98807.98;;;;
2021/05/28 11:58:09;;;;;;;3.9;1.9;;;;;;;18.87;52.5;98800.61;;;;
2021/05/28 12:08:08;;;;;;;4.1;2.2;;;;;;;19.79;49.90332;98779.82;;;;
2021/05/28 12:18:08;;;;;;;3.5;1.9;;;;;;;18.86;49.54297;98784.56;;;;
2021/05/28 12:28:08;;;;;;;3.1;1.9;;;;;;;18.3;51.02051;98781.28;;;;
2021/05/28 12:38:08;;;;;;;6.1;1.9;;;;;;;19.11;53.44434;98774.97;;;;
2021/05/28 12:48:08;;;;;;;4.9;2.4;;;;;;;20.18;49.56348;98775.83;;;;
2021/05/28 12:58:08;;;;;;;4.3;2.2;;;;;;;19.97;49.40039;98769.98;;;;
2021/05/28 13:08:08;;;;;;;6.9;3.7;;;;;;;19.45;48.00781;98767.86;;;;
2021/05/28 13:18:07;;;;;;;3.2;2.1;;;;;;;20.32;44.39941;98754.19;;;;
2021/05/28 13:28:08;;;;;;;4.5;2.5;;;;;;;20.65;44.01172;98759;;;;
2021/05/28 13:38:07;;;;;;;3.5;1.9;;;;;;;20.72;43.30664;98758.3;;;;
2021/05/28 13:48:07;;;;;;;5;2.3;;;;;;;19.45;46.47461;98767.86;;;;
2021/05/28 13:58:07;;;;;;;6.8;2.3;;;;;;;19.53;45.88965;98766.86;;;;
2021/05/28 14:08:07;;;;;;;4.2;1.9;;;;;;;19.04;47.92773;98769.36;;;;
2021/05/28 14:18:07;;;;;;;4.5;2.4;;;;;;;18.25;47.70313;98763.27;;;;
2021/05/28 14:28:07;;;;;;;5.1;2;;;;;;;18.14;49.21973;98775.05;;;;
2021/05/28 14:38:07;;;;;;;4.3;2.3;;;;;;;17.57;52.77441;98777.11;;;;
2021/05/28 14:48:07;;;;;;;6.2;3;;;;;;;18.16;51.6416;98768.09;;;;
2021/05/28 14:58:06;;;;;;;5.1;2.8;;;;;;;20.27;48.30469;98759.16;;;;
2021/05/28 15:08:06;;;;;;;4.6;2.1;;;;;;;23.21;41.28516;98754.77;;;;
2021/05/28 15:18:08;;;;;;;5.4;2.1;;;;;;;23.93;35.14063;98744.36;;;;
2021/05/28 15:28:07;;;;;;;2.9;1.4;;;;;;;24.31;34.78125;98739.27;;;;
2021/05/28 15:38:08;;;;;;;4.3;1.7;;;;;;;24.09;36.00098;98738.45;;;;
2021/05/28 15:48:08;;;;;;;5;1.6;;;;;;;24.15;35.52246;98747.16;;;;
2021/05/28 15:58:09;;;;;;;4.4;1.7;;;;;;;21.44;40.12793;98753.37;;;;
2021/05/28 16:08:09;;;;;;;4.7;1.7;;;;;;;19.2;46.34375;98750.94;;;;
2021/05/28 16:18:09;;;;;;;3.7;1.8;;;;;;;19.95;45.99121;98740.28;;;;
2021/05/28 16:28:09;;;;;;;5.3;2.1;;;;;;;22.15;40.56641;98745.83;;;;
2021/05/28 16:38:09;;;;;;;4.2;1.9;;;;;;;21.56;41.33105;98753.09;;;;
2021/05/28 16:48:10;;;;;;;5.3;2.9;;;;;;;22.23;39.41406;98747.47;;;;
2021/05/28 16:58:10;;;;;;;5.8;2.8;;;;;;;18.91;46.12695;98746.86;;;;
2021/05/28 17:08:10;;;;;;;4.8;2.6;;;;;;;17.87;49.61816;98752.98;;;;
2021/05/28 17:18:09;;;;;;;12.2;2.6;;;;;;;17.28;52.05859;98755.66;;;;
2021/05/28 17:28:09;;;;;;;6.5;3.1;;;;;;;16.91;52.38281;98751.45;;;;
2021/05/28 17:38:09;;;;;;;5.6;2;;;;;;;18.16;48.86426;98732.63;;;;
2021/05/28 17:48:09;;;;;;;5;1.8;;;;;;;19.86;45.00488;98747.92;;;;
2021/05/28 17:58:08;;;;;;;4.9;2.1;;;;;;;18.48;46.26758;98747.82;;;;
2021/05/28 18:08:08;;;;;;;8;2.9;;;;;;;16.86;49.22852;98760.67;;;;
2021/05/28 18:18:08;;;;;;;12.7;4;;;;;;;15.74;53.13086;98761.34;;;;
2021/05/28 18:28:07;;;;;;;6.1;3.2;;;;;;;14.71;59.27539;98767.69;;;;
2021/05/28 18:38:06;;;;;;;6.1;3.7;;;;;;;14.09;59.82129;98767.53;;;;
2021/05/28 18:48:05;;;;;;;7.2;5.1;;;;;;;13.55;62.77246;98775.34;;;;
2021/05/28 18:58:04;;;;;;;16.5;10.3;;;;;;;13.03;65.81934;98785.41;;;;
2021/05/28 19:08:03;;;;;;;8.6;5.5;;;;;;;12.75;68.57422;98803.04;;;;
2021/05/28 19:18:09;;;;;;;11.9;6.9;;;;;;;12.3;71.80762;98807.86;;;;
2021/05/28 19:28:01;;;;;;;11.1;5.3;;;;;;;11.79;73.39941;98810.34;;;;
2021/05/28 19:38:00;;;;;;;12.7;7.2;;;;;;;11.31;76.80371;98812.86;;;;
2021/05/28 19:48:00;;;;;;;8.2;6;;;;;;;11.11;81.98438;98823.02;;;;
2021/05/28 19:57:58;;;;;;;12.9;7.3;;;;;;;11.07;86.22656;98822.02;;;;
2021/05/28 20:07:56;;;;;;;7.9;5.7;;;;;;;11.14;86.4873;98821.63;;;;
2021/05/28 20:17:55;;;;;;;18.8;7.2;;;;;;;11.3;87.41797;98832.84;;;;
2021/05/28 20:27:54;;;;;;;13.9;8.4;;;;;;;11.38;86.69238;98824.83;;;;
2021/05/28 20:37:53;;;;;;;19.5;10.7;;;;;;;11.52;87.05664;98835.56;;;;
2021/05/28 20:47:51;;;;;;;12.5;8.6;;;;;;;11.62;86.75;98829.91;;;;
2021/05/28 20:57:51;;;;;;;12;7.9;;;;;;;11.67;86.01563;98835.16;;;;
2021/05/28 21:07:49;;;;;;;14;9.4;;;;;;;11.69;89.14063;98842.97;;;;
2021/05/28 21:17:48;;;;;;;14;9.1;;;;;;;11.65;87.15137;98840.09;;;;
2021/05/28 21:27:47;;;;;;;12.8;8.3;;;;;;;11.69;87.39355;98840.27;;;;
2021/05/28 21:37:46;;;;;;;12.3;8.6;;;;;;;11.67;87.875;98839.77;;;;
2021/05/28 21:47:44;;;;;;;14.8;9.8;;;;;;;11.65;89.28027;98833.89;;;;
2021/05/28 21:57:43;;;;;;;13.6;9.8;;;;;;;11.65;89.42676;98844.69;;;;
2021/05/28 22:07:42;;;;;;;10.5;8.5;;;;;;;11.62;90.96387;98835.3;;;;
2021/05/28 22:17:41;;;;;;;14.8;9.8;;;;;;;11.56;92.37012;98833.81;;;;
2021/05/28 22:27:49;;;;;;;11.2;8;;;;;;;11.61;93.47266;98836.41;;;;
2021/05/28 22:37:38;;;;;;;10.7;8.5;;;;;;;11.61;94.81152;98825.61;;;;
2021/05/28 22:47:37;;;;;;;11.6;7.9;;;;;;;11.59;95.33691;98822.43;;;;
2021/05/28 22:57:36;;;;;;;12.4;8;;;;;;;11.58;96.06543;98831.63;;;;
2021/05/28 23:07:37;;;;;;;11.7;9.7;;;;;;;11.55;97.16113;98824.14;;;;
2021/05/28 23:17:34;;;;;;;14;10.4;;;;;;;11.51;98.88184;98817.77;;;;
2021/05/28 23:27:33;;;;;;;12.9;9.1;;;;;;;11.5;99.96875;98810.76;;;;
2021/05/28 23:37:31;;;;;;;12.7;8.4;;;;;;;11.6;100;98818.6;;;;
2021/05/28 23:47:30;;;;;;;12.9;8.6;;;;;;;11.7;100;98822.97;;;;
2021/05/28 23:57:29;;;;;;;14.3;9.8;;;;;;;11.61;100;98823.7;;;;
